Time;durP1;ratioP1;P1;durP2;ratioP2;P2;SDS_P1;SDS_P2;PMS_P1;PMS_P2;Temp;Humidity;BMP_temperature;BMP_pressure;BME280_temperature;BME280_humidity;BME280_pressure;Samples;Min_cycle;Max_cycle;Signal;HPM_P1;HPM_P2
2023/12/24 00:00:19;;;;;;;6.20;3.22;;;;;;;;;;1033358;28;20047;-63
2023/12/24 00:01:10;;;;;;;5.75;3.15;;;;;;;;;;1031014;28;20108;-62
2023/12/24 00:02:00;;;;;;;8.75;3.92;;;;;;;;;;1031841;28;20068;-63
2023/12/24 00:02:31;;;;;;;7.10;3.95;;;;;;;;;;1032767;28;20057;-63
2023/12/24 00:03:02;;;;;;;8.25;4.38;;;;;;;;;;1032261;28;20487;-63
2023/12/24 00:03:37;;;;;;;13.45;4.30;;;;;;;;;;1034159;28;20053;-62
2023/12/24 00:04:07;;;;;;;7.30;3.72;;;;;;;;;;1034831;28;20068;-62
2023/12/24 00:04:38;;;;;;;12.65;3.95;;;;;;;;;;1033633;28;20145;-63
2023/12/24 00:05:08;;;;;;;8.27;4.13;;;;;;;;;;1033386;28;20042;-63
2023/12/24 00:05:39;;;;;;;13.65;4.22;;;;;;;;;;1033428;28;20048;-62
2023/12/24 00:06:09;;;;;;;8.90;4.03;;;;;;;;;;1033312;28;20132;-63
2023/12/24 00:06:40;;;;;;;6.55;3.38;;;;;;;;;;1032127;28;20577;-63
2023/12/24 00:07:10;;;;;;;7.15;3.97;;;;;;;;;;1033826;28;20061;-62
2023/12/24 00:07:41;;;;;;;7.32;3.63;;;;;;;;;;1032741;28;20132;-63
2023/12/24 00:08:11;;;;;;;8.63;3.47;;;;;;;;;;1033807;28;20437;-63
2023/12/24 00:08:42;;;;;;;10.43;3.53;;;;;;;;;;1036387;28;20060;-63
2023/12/24 00:09:12;;;;;;;8.15;3.55;;;;;;;;;;1036343;28;20083;-63
2023/12/24 00:09:43;;;;;;;10.90;3.85;;;;;;;;;;1034082;28;20057;-63
2023/12/24 00:10:13;;;;;;;9.48;4.18;;;;;;;;;;1033925;28;20510;-63
2023/12/24 00:10:44;;;;;;;8.45;3.67;;;;;;;;;;1032963;28;20080;-62
2023/12/24 00:11:15;;;;;;;9.52;3.53;;;;;;;;;;1033355;28;20054;-63
2023/12/24 00:11:45;;;;;;;9.38;3.90;;;;;;;;;;1034114;28;20045;-63
2023/12/24 00:12:16;;;;;;;7.68;3.35;;;;;;;;;;1033904;28;20050;-62
2023/12/24 00:12:46;;;;;;;10.35;4.15;;;;;;;;;;1033702;28;20270;-63
2023/12/24 00:13:17;;;;;;;11.15;3.65;;;;;;;;;;1032906;28;20073;-62
2023/12/24 00:13:47;;;;;;;6.53;3.63;;;;;;;;;;1032058;28;20057;-63
2023/12/24 00:14:18;;;;;;;11.43;4.38;;;;;;;;;;1034209;28;20050;-63
2023/12/24 00:14:48;;;;;;;8.10;3.38;;;;;;;;;;1033813;28;20050;-63
2023/12/24 00:15:19;;;;;;;13.70;4.03;;;;;;;;;;1033263;28;20049;-63
2023/12/24 00:15:49;;;;;;;8.13;3.95;;;;;;;;;;1032760;28;20054;-63
2023/12/24 00:16:20;;;;;;;7.47;3.53;;;;;;;;;;1034530;28;20062;-63
2023/12/24 00:16:50;;;;;;;6.28;3.20;;;;;;;;;;1033414;28;20053;-63
2023/12/24 00:17:21;;;;;;;5.13;3.53;;;;;;;;;;1034322;28;20054;-63
2023/12/24 00:17:52;;;;;;;7.60;3.75;;;;;;;;;;1033190;28;20140;-62
2023/12/24 00:18:22;;;;;;;8.35;4.30;;;;;;;;;;1032912;28;20060;-63
2023/12/24 00:18:53;;;;;;;8.75;4.13;;;;;;;;;;1033135;28;20064;-63
2023/12/24 00:19:24;;;;;;;6.30;3.60;;;;;;;;;;1033345;28;20089;-63
2023/12/24 00:19:54;;;;;;;8.00;3.75;;;;;;;;;;1033946;28;20050;-62
2023/12/24 00:20:24;;;;;;;8.45;4.28;;;;;;;;;;1033255;28;20624;-63
2023/12/24 00:20:55;;;;;;;9.18;4.03;;;;;;;;;;1034809;28;20061;-63
2023/12/24 00:21:26;;;;;;;8.52;3.80;;;;;;;;;;1032730;28;20050;-63
2023/12/24 00:21:56;;;;;;;8.43;3.70;;;;;;;;;;1033726;28;20041;-62
2023/12/24 00:22:28;;;;;;;8.85;3.75;;;;;;;;;;1033447;28;20077;-63
2023/12/24 00:23:10;;;;;;;8.57;4.00;;;;;;;;;;1034035;28;20060;-63
2023/12/24 00:23:42;;;;;;;10.00;4.13;;;;;;;;;;1032648;28;20402;-63
2023/12/24 00:24:12;;;;;;;7.55;3.25;;;;;;;;;;1034794;28;20326;-63
2023/12/24 00:24:44;;;;;;;7.25;3.80;;;;;;;;;;1032806;28;20496;-62
2023/12/24 00:25:14;;;;;;;4.82;2.97;;;;;;;;;;1034447;28;20051;-62
2023/12/24 00:25:45;;;;;;;7.07;3.80;;;;;;;;;;1033283;28;20130;-63
2023/12/24 00:26:16;;;;;;;8.35;4.30;;;;;;;;;;1032869;28;20095;-63
2023/12/24 00:26:46;;;;;;;11.38;3.80;;;;;;;;;;1033812;28;20510;-62
2023/12/24 00:27:17;;;;;;;7.88;3.72;;;;;;;;;;1032648;28;20517;-62
2023/12/24 00:27:48;;;;;;;9.38;3.90;;;;;;;;;;1034385;28;20046;-62
2023/12/24 00:28:18;;;;;;;8.05;4.20;;;;;;;;;;1033107;28;20042;-63
2023/12/24 00:28:51;;;;;;;7.82;3.63;;;;;;;;;;1033661;28;20061;-63
2023/12/24 00:29:21;;;;;;;6.07;3.05;;;;;;;;;;1031615;28;20054;-63
2023/12/24 00:29:51;;;;;;;5.68;3.47;;;;;;;;;;1032834;28;20046;-62
2023/12/24 00:30:22;;;;;;;10.23;4.32;;;;;;;;;;1032664;28;20529;-63
2023/12/24 00:30:52;;;;;;;10.73;3.60;;;;;;;;;;1033528;28;20155;-63
2023/12/24 00:31:24;;;;;;;6.43;3.38;;;;;;;;;;1033196;28;20137;-63
2023/12/24 00:31:54;;;;;;;12.00;3.35;;;;;;;;;;1033242;28;20077;-63
2023/12/24 00:32:24;;;;;;;7.97;3.90;;;;;;;;;;1034089;28;20041;-63
2023/12/24 00:32:56;;;;;;;9.52;3.83;;;;;;;;;;1034237;28;20505;-63
2023/12/24 00:33:26;;;;;;;14.48;4.25;;;;;;;;;;1033604;28;20049;-63
2023/12/24 00:33:57;;;;;;;6.03;3.38;;;;;;;;;;1033758;28;20057;-62
2023/12/24 00:34:27;;;;;;;9.68;3.88;;;;;;;;;;1033758;28;20149;-63
2023/12/24 00:34:58;;;;;;;10.32;3.90;;;;;;;;;;1033735;28;20121;-63
2023/12/24 00:35:31;;;;;;;9.63;3.75;;;;;;;;;;1033013;28;20385;-62
2023/12/24 00:36:01;;;;;;;14.35;4.30;;;;;;;;;;1032919;28;20048;-62
2023/12/24 00:36:32;;;;;;;8.32;3.80;;;;;;;;;;1033860;28;20053;-62
2023/12/24 00:37:02;;;;;;;8.43;3.60;;;;;;;;;;1034722;28;20057;-63
2023/12/24 00:37:33;;;;;;;9.05;3.80;;;;;;;;;;1032827;28;20045;-62
2023/12/24 00:38:03;;;;;;;10.93;3.53;;;;;;;;;;1033640;28;20076;-62
2023/12/24 00:38:34;;;;;;;13.02;4.40;;;;;;;;;;1031950;28;20512;-62
2023/12/24 00:39:04;;;;;;;8.95;3.78;;;;;;;;;;1033882;28;20046;-63
2023/12/24 00:39:35;;;;;;;7.43;3.25;;;;;;;;;;1032793;28;20049;-63
2023/12/24 00:40:06;;;;;;;7.57;3.30;;;;;;;;;;1033550;28;20053;-63
2023/12/24 00:40:36;;;;;;;7.22;3.40;;;;;;;;;;1033843;28;20041;-63
2023/12/24 00:41:07;;;;;;;6.85;3.05;;;;;;;;;;1033521;28;20054;-62
2023/12/24 00:41:39;;;;;;;15.10;4.50;;;;;;;;;;1032047;28;20728;-63
2023/12/24 00:42:09;;;;;;;7.43;3.30;;;;;;;;;;1034269;28;20077;-63
2023/12/24 00:42:41;;;;;;;7.72;4.05;;;;;;;;;;1032089;28;20104;-63
2023/12/24 00:43:12;;;;;;;7.65;3.40;;;;;;;;;;1033352;28;20048;-63
2023/12/24 00:43:43;;;;;;;7.47;3.20;;;;;;;;;;1032646;28;20053;-62
2023/12/24 00:44:14;;;;;;;9.13;3.10;;;;;;;;;;1034203;28;20470;-63
2023/12/24 00:44:44;;;;;;;7.30;3.63;;;;;;;;;;1032819;28;20607;-63
2023/12/24 00:45:15;;;;;;;7.13;3.47;;;;;;;;;;1032147;28;20121;-63
2023/12/24 00:45:45;;;;;;;8.50;3.22;;;;;;;;;;1032137;28;20127;-63
2023/12/24 00:46:16;;;;;;;14.80;3.75;;;;;;;;;;1032925;28;20053;-62
2023/12/24 00:46:47;;;;;;;8.85;3.25;;;;;;;;;;1033937;28;20053;-63
2023/12/24 00:47:17;;;;;;;11.23;3.83;;;;;;;;;;1031900;28;20041;-62
2023/12/24 00:47:48;;;;;;;10.38;4.10;;;;;;;;;;1033832;28;20178;-62
2023/12/24 00:48:18;;;;;;;8.23;3.38;;;;;;;;;;1032771;28;20057;-63
2023/12/24 00:48:50;;;;;;;6.85;3.35;;;;;;;;;;1033488;28;20057;-62
2023/12/24 00:49:20;;;;;;;7.38;3.50;;;;;;;;;;1032828;28;20514;-63
2023/12/24 00:49:51;;;;;;;9.20;3.40;;;;;;;;;;1032411;28;20553;-62
2023/12/24 00:50:21;;;;;;;7.20;3.40;;;;;;;;;;1032729;28;20046;-63
2023/12/24 00:50:52;;;;;;;9.00;3.50;;;;;;;;;;1033241;28;20073;-62
2023/12/24 00:51:22;;;;;;;7.35;3.45;;;;;;;;;;1033666;28;20875;-63
2023/12/24 00:51:53;;;;;;;8.88;3.38;;;;;;;;;;1033160;28;20141;-63
2023/12/24 00:52:24;;;;;;;8.77;3.58;;;;;;;;;;1033670;28;20414;-63
2023/12/24 00:52:54;;;;;;;6.82;3.13;;;;;;;;;;1032868;28;20077;-63
2023/12/24 00:53:25;;;;;;;7.72;3.67;;;;;;;;;;1033186;28;22303;-63
2023/12/24 00:53:55;;;;;;;5.80;2.67;;;;;;;;;;1034389;28;20084;-62
2023/12/24 00:54:26;;;;;;;7.20;3.53;;;;;;;;;;1031447;28;20060;-63
2023/12/24 00:54:56;;;;;;;9.10;2.83;;;;;;;;;;1032038;28;20061;-62
2023/12/24 00:55:27;;;;;;;10.50;3.40;;;;;;;;;;1030547;28;20136;-62
2023/12/24 00:55:58;;;;;;;10.90;3.38;;;;;;;;;;1031831;28;20051;-62
2023/12/24 00:56:28;;;;;;;6.45;3.05;;;;;;;;;;1033627;28;20038;-63
2023/12/24 00:56:59;;;;;;;8.98;3.10;;;;;;;;;;1034234;28;20104;-62
2023/12/24 00:57:29;;;;;;;8.48;3.35;;;;;;;;;;1031404;28;20046;-62
2023/12/24 00:58:00;;;;;;;5.60;2.90;;;;;;;;;;1032952;28;20053;-62
2023/12/24 00:58:30;;;;;;;13.85;3.42;;;;;;;;;;1033589;28;20049;-63
2023/12/24 00:59:01;;;;;;;11.88;3.05;;;;;;;;;;1032271;28;20557;-62
2023/12/24 00:59:31;;;;;;;8.57;3.50;;;;;;;;;;1031213;28;20057;-62
2023/12/24 01:00:03;;;;;;;10.60;3.72;;;;;;;;;;1032548;28;20588;-63
2023/12/24 01:00:34;;;;;;;7.88;3.45;;;;;;;;;;1031650;28;20075;-63
2023/12/24 01:01:04;;;;;;;9.15;3.25;;;;;;;;;;1034000;28;20049;-62
2023/12/24 01:01:35;;;;;;;7.20;2.83;;;;;;;;;;1033302;28;20049;-63
2023/12/24 01:02:05;;;;;;;6.20;3.03;;;;;;;;;;1033881;28;20050;-62
2023/12/24 01:02:36;;;;;;;10.80;3.60;;;;;;;;;;1033324;28;20066;-63
2023/12/24 01:03:06;;;;;;;8.82;2.53;;;;;;;;;;1033927;28;20869;-63
2023/12/24 01:03:36;;;;;;;8.60;2.90;;;;;;;;;;1032505;28;20061;-63
2023/12/24 01:04:07;;;;;;;6.40;3.30;;;;;;;;;;1033837;28;20053;-62
2023/12/24 01:04:38;;;;;;;9.88;3.22;;;;;;;;;;1033631;28;20145;-63
2023/12/24 01:05:08;;;;;;;10.05;3.92;;;;;;;;;;1034526;28;20065;-63
2023/12/24 01:05:39;;;;;;;5.85;3.42;;;;;;;;;;1032213;28;20046;-62
2023/12/24 01:06:10;;;;;;;11.10;3.08;;;;;;;;;;1034178;28;20046;-62
2023/12/24 01:06:40;;;;;;;9.38;3.33;;;;;;;;;;1030340;28;20124;-62
2023/12/24 01:07:11;;;;;;;5.80;3.03;;;;;;;;;;1034564;28;20048;-63
2023/12/24 01:07:41;;;;;;;9.35;3.78;;;;;;;;;;1032575;28;20103;-63
2023/12/24 01:08:12;;;;;;;6.75;3.42;;;;;;;;;;1034283;28;20371;-62
2023/12/24 01:08:42;;;;;;;11.45;3.60;;;;;;;;;;1030957;28;20054;-62
2023/12/24 01:09:13;;;;;;;9.05;3.72;;;;;;;;;;1033018;28;20054;-62
2023/12/24 01:09:43;;;;;;;10.93;3.35;;;;;;;;;;1034198;28;20543;-63
2023/12/24 01:10:14;;;;;;;9.70;3.58;;;;;;;;;;1035923;28;20060;-63
2023/12/24 01:10:45;;;;;;;10.57;4.10;;;;;;;;;;1035121;28;20065;-63
2023/12/24 01:11:15;;;;;;;5.10;2.78;;;;;;;;;;1035616;28;20040;-63
2023/12/24 01:11:47;;;;;;;10.68;3.55;;;;;;;;;;1035674;28;20041;-62
2023/12/24 01:12:18;;;;;;;7.57;3.08;;;;;;;;;;1036066;28;20042;-62
2023/12/24 01:12:48;;;;;;;7.55;3.45;;;;;;;;;;1036341;28;20439;-63
2023/12/24 01:13:19;;;;;;;7.75;3.20;;;;;;;;;;1036213;28;20115;-62
2023/12/24 01:13:49;;;;;;;6.13;3.22;;;;;;;;;;1035130;28;20101;-63
2023/12/24 01:14:20;;;;;;;5.88;2.70;;;;;;;;;;1036564;28;20076;-62
2023/12/24 01:14:50;;;;;;;5.57;3.10;;;;;;;;;;1036171;28;20053;-63
2023/12/24 01:15:21;;;;;;;8.32;3.30;;;;;;;;;;1036153;28;20060;-63
2023/12/24 01:15:52;;;;;;;14.07;3.78;;;;;;;;;;1035376;28;20076;-63
2023/12/24 01:16:22;;;;;;;11.32;3.35;;;;;;;;;;1035677;28;20050;-62
2023/12/24 01:16:53;;;;;;;7.00;3.47;;;;;;;;;;1036162;28;20054;-62
2023/12/24 01:17:23;;;;;;;4.10;2.75;;;;;;;;;;1038554;28;20071;-62
2023/12/24 01:17:54;;;;;;;5.85;3.25;;;;;;;;;;1037216;28;20045;-63
2023/12/24 01:18:24;;;;;;;7.57;3.05;;;;;;;;;;1036654;28;20841;-63
2023/12/24 01:18:55;;;;;;;6.93;3.30;;;;;;;;;;1038588;28;20053;-62
2023/12/24 01:19:27;;;;;;;9.23;3.45;;;;;;;;;;1037575;28;20409;-63
2023/12/24 01:19:57;;;;;;;6.50;3.20;;;;;;;;;;1038099;28;20049;-63
2023/12/24 01:20:28;;;;;;;11.05;3.33;;;;;;;;;;1036277;28;20172;-62
2023/12/24 01:20:59;;;;;;;9.43;3.97;;;;;;;;;;1036332;28;20108;-62
2023/12/24 01:21:29;;;;;;;10.65;3.15;;;;;;;;;;1034618;28;20497;-62
2023/12/24 01:22:00;;;;;;;7.80;3.30;;;;;;;;;;1036582;28;20041;-63
2023/12/24 01:22:30;;;;;;;10.02;3.13;;;;;;;;;;1035574;28;20046;-63
2023/12/24 01:23:00;;;;;;;7.75;2.97;;;;;;;;;;1037166;28;20421;-62
2023/12/24 01:23:31;;;;;;;11.70;3.50;;;;;;;;;;1036400;28;20045;-62
2023/12/24 01:24:02;;;;;;;6.15;3.20;;;;;;;;;;1036960;28;20053;-63
2023/12/24 01:24:32;;;;;;;10.98;3.40;;;;;;;;;;1037897;28;20037;-62
2023/12/24 01:25:03;;;;;;;6.00;3.17;;;;;;;;;;1037582;28;20120;-62
2023/12/24 01:25:34;;;;;;;9.75;3.45;;;;;;;;;;1038283;28;20049;-63
2023/12/24 01:26:05;;;;;;;7.32;3.15;;;;;;;;;;1037973;28;20114;-62
2023/12/24 01:26:36;;;;;;;7.70;3.45;;;;;;;;;;1037604;28;20049;-62
2023/12/24 01:27:07;;;;;;;6.15;3.08;;;;;;;;;;1036322;28;20124;-63
2023/12/24 01:27:37;;;;;;;7.65;3.17;;;;;;;;;;1037657;28;20049;-62
2023/12/24 01:28:08;;;;;;;6.80;3.33;;;;;;;;;;1034750;28;20050;-62
2023/12/24 01:28:40;;;;;;;7.70;3.45;;;;;;;;;;1038003;28;20111;-62
2023/12/24 01:29:11;;;;;;;5.95;3.00;;;;;;;;;;1037338;28;20058;-62
2023/12/24 01:29:41;;;;;;;7.15;3.50;;;;;;;;;;1035459;28;20053;-63
2023/12/24 01:30:12;;;;;;;4.30;3.00;;;;;;;;;;1037111;28;20049;-62
2023/12/24 01:30:42;;;;;;;10.98;3.60;;;;;;;;;;1041098;28;20138;-63
2023/12/24 01:31:13;;;;;;;7.38;3.47;;;;;;;;;;1041076;28;20045;-63
2023/12/24 01:31:43;;;;;;;9.00;3.55;;;;;;;;;;1041511;28;20056;-62
2023/12/24 01:32:14;;;;;;;5.55;3.03;;;;;;;;;;1040549;28;20106;-63
2023/12/24 01:32:44;;;;;;;6.82;3.30;;;;;;;;;;1034449;28;20099;-62
2023/12/24 01:33:15;;;;;;;7.22;3.10;;;;;;;;;;1037289;28;20056;-63
2023/12/24 01:33:45;;;;;;;8.23;3.47;;;;;;;;;;1035339;28;20061;-62
2023/12/24 01:34:16;;;;;;;9.30;3.75;;;;;;;;;;1035756;28;20499;-62
2023/12/24 01:34:47;;;;;;;6.53;4.10;;;;;;;;;;1039924;28;20048;-63
2023/12/24 01:35:17;;;;;;;8.45;3.45;;;;;;;;;;1040054;28;20104;-63
2023/12/24 01:35:48;;;;;;;9.35;3.85;;;;;;;;;;1040424;28;20131;-62
2023/12/24 01:36:19;;;;;;;12.05;3.97;;;;;;;;;;1038418;28;20083;-62
2023/12/24 01:36:50;;;;;;;9.30;3.58;;;;;;;;;;1035575;28;20134;-63
2023/12/24 01:37:20;;;;;;;4.65;2.92;;;;;;;;;;1036018;28;20095;-63
2023/12/24 01:37:51;;;;;;;8.02;3.25;;;;;;;;;;1036225;28;20057;-62
2023/12/24 01:38:21;;;;;;;8.73;3.28;;;;;;;;;;1035806;28;20049;-63
2023/12/24 01:38:52;;;;;;;7.30;3.10;;;;;;;;;;1035025;28;20258;-63
2023/12/24 01:39:22;;;;;;;7.88;3.33;;;;;;;;;;1036886;28;20062;-62
2023/12/24 01:39:53;;;;;;;9.10;3.28;;;;;;;;;;1036699;28;20058;-62
2023/12/24 01:40:23;;;;;;;11.27;3.22;;;;;;;;;;1037812;28;20103;-62
2023/12/24 01:40:54;;;;;;;7.07;2.75;;;;;;;;;;1037630;28;20068;-63
2023/12/24 01:41:25;;;;;;;6.88;3.00;;;;;;;;;;1037183;28;20045;-63
2023/12/24 01:41:55;;;;;;;8.70;3.15;;;;;;;;;;1035476;28;20513;-63
2023/12/24 01:42:26;;;;;;;9.23;2.95;;;;;;;;;;1037347;28;20119;-62
2023/12/24 01:42:56;;;;;;;8.82;3.00;;;;;;;;;;1034310;28;20069;-63
2023/12/24 01:43:27;;;;;;;9.77;2.80;;;;;;;;;;1035283;28;20759;-62
2023/12/24 01:43:57;;;;;;;5.47;2.90;;;;;;;;;;1035416;28;20051;-63
2023/12/24 01:44:28;;;;;;;6.75;3.38;;;;;;;;;;1034480;28;20061;-63
2023/12/24 01:44:59;;;;;;;7.78;3.28;;;;;;;;;;1036212;28;20073;-63
2023/12/24 01:45:29;;;;;;;7.85;2.53;;;;;;;;;;1034342;28;20056;-63
2023/12/24 01:46:00;;;;;;;9.45;2.83;;;;;;;;;;1036027;28;20053;-62
2023/12/24 01:46:31;;;;;;;6.20;3.05;;;;;;;;;;1036952;28;20059;-63
2023/12/24 01:47:02;;;;;;;7.63;2.92;;;;;;;;;;1035447;28;20045;-63
2023/12/24 01:47:32;;;;;;;8.07;3.15;;;;;;;;;;1035939;28;20057;-63
2023/12/24 01:48:03;;;;;;;6.15;2.65;;;;;;;;;;1034187;28;20054;-63
2023/12/24 01:48:34;;;;;;;9.25;3.17;;;;;;;;;;1037202;28;20053;-62
2023/12/24 01:49:04;;;;;;;4.13;2.50;;;;;;;;;;1036124;28;20057;-63
2023/12/24 01:49:35;;;;;;;7.70;2.72;;;;;;;;;;1036925;28;20045;-63
2023/12/24 01:50:07;;;;;;;8.15;2.97;;;;;;;;;;1037246;28;20053;-62
2023/12/24 01:50:38;;;;;;;6.40;2.83;;;;;;;;;;1037498;28;20096;-62
2023/12/24 01:51:09;;;;;;;4.88;2.88;;;;;;;;;;1037937;28;20049;-63
2023/12/24 01:51:39;;;;;;;6.72;2.55;;;;;;;;;;1037656;28;20045;-62
2023/12/24 01:52:10;;;;;;;7.40;2.70;;;;;;;;;;1036415;28;20050;-63
2023/12/24 01:52:41;;;;;;;5.60;2.58;;;;;;;;;;1038105;28;20650;-63
2023/12/24 01:53:13;;;;;;;7.78;2.97;;;;;;;;;;1037809;28;20462;-63
2023/12/24 01:53:44;;;;;;;8.38;2.88;;;;;;;;;;1036393;28;20053;-62
2023/12/24 01:54:15;;;;;;;5.88;2.70;;;;;;;;;;1036322;28;20128;-63
2023/12/24 01:54:47;;;;;;;6.28;2.85;;;;;;;;;;1037296;28;20164;-63
2023/12/24 01:55:19;;;;;;;5.80;2.95;;;;;;;;;;1036081;28;20272;-63
2023/12/24 01:55:49;;;;;;;4.90;2.60;;;;;;;;;;1032027;28;20092;-63
2023/12/24 01:56:22;;;;;;;5.38;2.90;;;;;;;;;;1034026;28;20772;-63
2023/12/24 01:56:53;;;;;;;4.32;2.20;;;;;;;;;;1035309;28;20147;-62
2023/12/24 01:57:24;;;;;;;7.25;2.90;;;;;;;;;;1034679;28;20053;-63
2023/12/24 01:57:55;;;;;;;5.30;2.47;;;;;;;;;;1037776;28;20053;-62
2023/12/24 01:58:25;;;;;;;5.28;2.75;;;;;;;;;;1041264;28;20060;-62
2023/12/24 01:58:57;;;;;;;5.05;2.47;;;;;;;;;;1037711;28;20456;-62
2023/12/24 01:59:29;;;;;;;5.40;2.90;;;;;;;;;;1036029;28;20493;-62
2023/12/24 02:00:00;;;;;;;6.10;2.72;;;;;;;;;;1037555;28;20156;-63
2023/12/24 02:00:31;;;;;;;7.93;2.70;;;;;;;;;;1036177;28;20075;-62
2023/12/24 02:01:01;;;;;;;5.65;2.67;;;;;;;;;;1037552;28;20072;-62
2023/12/24 02:01:32;;;;;;;6.90;2.90;;;;;;;;;;1036354;28;20045;-62
2023/12/24 02:02:03;;;;;;;4.07;2.88;;;;;;;;;;1036569;28;20080;-62
2023/12/24 02:02:34;;;;;;;5.97;2.83;;;;;;;;;;1036822;28;20052;-63
2023/12/24 02:03:05;;;;;;;6.82;2.90;;;;;;;;;;1037653;28;20726;-63
2023/12/24 02:03:36;;;;;;;4.95;2.70;;;;;;;;;;1036934;28;20787;-63
2023/12/24 02:04:07;;;;;;;6.68;3.00;;;;;;;;;;1038230;28;20041;-62
2023/12/24 02:04:38;;;;;;;6.20;2.90;;;;;;;;;;1036794;28;20046;-62
2023/12/24 02:05:08;;;;;;;6.35;3.05;;;;;;;;;;1038103;28;20136;-63
2023/12/24 02:05:40;;;;;;;5.65;2.80;;;;;;;;;;1035851;28;20065;-62
2023/12/24 02:06:13;;;;;;;6.65;3.28;;;;;;;;;;1038374;28;20136;-63
2023/12/24 02:06:44;;;;;;;6.88;3.13;;;;;;;;;;1037386;28;20049;-63
2023/12/24 02:07:15;;;;;;;9.23;2.80;;;;;;;;;;1038692;28;20041;-62
2023/12/24 02:07:47;;;;;;;8.77;2.65;;;;;;;;;;1035372;28;20520;-62
2023/12/24 02:08:21;;;;;;;7.45;2.58;;;;;;;;;;1037789;28;20095;-62
2023/12/24 02:08:52;;;;;;;7.45;2.60;;;;;;;;;;1037230;28;20057;-63
2023/12/24 02:09:22;;;;;;;7.65;3.10;;;;;;;;;;1037796;28;20053;-62
2023/12/24 02:09:53;;;;;;;7.30;2.70;;;;;;;;;;1037139;28;20525;-62
2023/12/24 02:10:25;;;;;;;7.53;3.00;;;;;;;;;;1034326;28;20115;-63
2023/12/24 02:10:58;;;;;;;5.97;2.83;;;;;;;;;;1038757;28;20559;-62
2023/12/24 02:11:28;;;;;;;10.13;3.25;;;;;;;;;;1035297;28;20061;-63
2023/12/24 02:11:59;;;;;;;9.80;2.80;;;;;;;;;;1038754;28;20045;-63
2023/12/24 02:12:29;;;;;;;5.57;3.03;;;;;;;;;;1037004;28;20068;-63
2023/12/24 02:13:00;;;;;;;3.72;2.40;;;;;;;;;;1038625;28;20477;-62
2023/12/24 02:13:34;;;;;;;6.78;3.08;;;;;;;;;;1036201;28;20136;-63
2023/12/24 02:14:04;;;;;;;3.30;2.42;;;;;;;;;;1037550;28;20049;-63
2023/12/24 02:14:35;;;;;;;6.55;3.15;;;;;;;;;;1034982;28;20054;-63
2023/12/24 02:15:06;;;;;;;4.25;2.58;;;;;;;;;;1037492;28;20045;-63
2023/12/24 02:15:36;;;;;;;7.55;2.78;;;;;;;;;;1037802;28;20555;-63
2023/12/24 02:16:09;;;;;;;10.10;3.17;;;;;;;;;;1037722;28;20088;-63
2023/12/24 02:16:41;;;;;;;6.38;2.90;;;;;;;;;;1037770;28;20414;-62
2023/12/24 02:17:13;;;;;;;10.63;3.20;;;;;;;;;;1037890;28;20529;-62
2023/12/24 02:17:45;;;;;;;7.45;3.75;;;;;;;;;;1038408;28;20057;-62
2023/12/24 02:18:15;;;;;;;10.32;3.08;;;;;;;;;;1036141;28;20053;-62
2023/12/24 02:18:47;;;;;;;4.88;2.83;;;;;;;;;;1034731;28;20053;-63
2023/12/24 02:19:21;;;;;;;6.95;3.38;;;;;;;;;;1037348;28;20133;-62
2023/12/24 02:19:52;;;;;;;7.65;3.65;;;;;;;;;;1037640;28;20045;-66
2023/12/24 02:20:24;;;;;;;5.10;2.90;;;;;;;;;;1036156;28;20085;-63
2023/12/24 02:21:05;;;;;;;3.03;2.72;;;;;;;;;;1038735;28;20053;-63
2023/12/24 02:21:35;;;;;;;5.07;2.80;;;;;;;;;;1036303;28;20045;-62
2023/12/24 02:22:06;;;;;;;5.07;2.80;;;;;;;;;;1037905;28;20037;-63
2023/12/24 02:22:36;;;;;;;7.07;3.15;;;;;;;;;;1036071;28;20498;-62
2023/12/24 02:23:07;;;;;;;4.68;2.88;;;;;;;;;;1038147;28;20049;-63
2023/12/24 02:23:37;;;;;;;6.90;2.83;;;;;;;;;;1034988;28;20045;-63
2023/12/24 02:24:08;;;;;;;7.50;2.97;;;;;;;;;;1038537;28;20049;-63
2023/12/24 02:24:38;;;;;;;4.32;2.83;;;;;;;;;;1037014;28;20049;-63
2023/12/24 02:25:09;;;;;;;7.82;2.97;;;;;;;;;;1036804;28;20053;-63
2023/12/24 02:25:39;;;;;;;8.30;3.95;;;;;;;;;;1037349;28;20096;-62
2023/12/24 02:26:25;;;;;;;6.15;2.97;;;;;;;;;;1036967;28;20049;-62
2023/12/24 02:27:09;;;;;;;8.07;3.60;;;;;;;;;;1038272;28;20095;-63
2023/12/24 02:27:48;;;;;;;6.97;3.15;;;;;;;;;;1036841;28;20052;-62
2023/12/24 02:28:25;;;;;;;5.40;3.30;;;;;;;;;;1037294;28;20383;-63
2023/12/24 02:29:23;;;;;;;9.60;3.60;;;;;;;;;;1037420;28;20061;-63
2023/12/24 02:29:58;;;;;;;5.97;2.65;;;;;;;;;;1037082;28;20057;-63
2023/12/24 02:30:41;;;;;;;5.05;3.15;;;;;;;;;;1035047;28;20092;-62
2023/12/24 02:31:15;;;;;;;6.05;3.05;;;;;;;;;;1037762;28;20076;-63
2023/12/24 02:31:47;;;;;;;11.43;3.15;;;;;;;;;;1035312;28;20746;-62
2023/12/24 02:32:19;;;;;;;7.88;2.90;;;;;;;;;;1038125;28;20132;-63
2023/12/24 02:32:54;;;;;;;5.25;3.13;;;;;;;;;;1036770;28;20132;-63
2023/12/24 02:33:30;;;;;;;6.05;3.63;;;;;;;;;;1038085;28;20065;-63
2023/12/24 02:34:02;;;;;;;7.72;4.05;;;;;;;;;;1036834;28;20061;-62
2023/12/24 02:34:35;;;;;;;10.40;3.38;;;;;;;;;;1035859;28;20775;-62
2023/12/24 02:35:08;;;;;;;5.05;2.85;;;;;;;;;;1037861;28;20505;-62
2023/12/24 02:35:39;;;;;;;8.13;3.05;;;;;;;;;;1037409;28;20616;-63
2023/12/24 02:36:12;;;;;;;7.10;3.20;;;;;;;;;;1036496;28;20078;-62
2023/12/24 02:36:45;;;;;;;8.05;3.00;;;;;;;;;;1036931;28;20049;-62
2023/12/24 02:37:16;;;;;;;9.50;3.38;;;;;;;;;;1038121;28;20052;-63
2023/12/24 02:37:47;;;;;;;10.35;3.40;;;;;;;;;;1036876;28;20060;-63
2023/12/24 02:38:17;;;;;;;7.07;3.28;;;;;;;;;;1036348;28;20092;-63
2023/12/24 02:38:48;;;;;;;5.55;2.83;;;;;;;;;;1035697;28;20064;-62
2023/12/24 02:39:18;;;;;;;7.35;3.80;;;;;;;;;;1038534;28;20041;-62
2023/12/24 02:39:49;;;;;;;5.70;3.15;;;;;;;;;;1036714;28;20865;-63
2023/12/24 02:40:19;;;;;;;7.25;3.17;;;;;;;;;;1037642;28;20172;-62
2023/12/24 02:40:50;;;;;;;6.82;2.90;;;;;;;;;;1036403;28;20056;-63
2023/12/24 02:41:20;;;;;;;3.30;2.75;;;;;;;;;;1037472;28;20049;-62
2023/12/24 02:41:51;;;;;;;9.35;3.22;;;;;;;;;;1037394;28;20053;-63
2023/12/24 02:42:21;;;;;;;5.57;3.28;;;;;;;;;;1038196;28;20053;-62
2023/12/24 02:42:52;;;;;;;9.68;3.40;;;;;;;;;;1036579;28;20045;-63
2023/12/24 02:43:22;;;;;;;5.95;3.50;;;;;;;;;;1037127;28;20072;-63
2023/12/24 02:43:53;;;;;;;5.32;3.33;;;;;;;;;;1033579;28;20060;-63
2023/12/24 02:44:23;;;;;;;7.82;2.85;;;;;;;;;;1032963;28;20487;-63
2023/12/24 02:44:54;;;;;;;8.85;3.33;;;;;;;;;;1033769;28;20064;-62
2023/12/24 02:45:24;;;;;;;11.30;3.38;;;;;;;;;;1032792;28;20056;-63
2023/12/24 02:45:55;;;;;;;7.53;2.85;;;;;;;;;;1032934;28;20116;-63
2023/12/24 02:46:25;;;;;;;7.30;3.00;;;;;;;;;;1033090;28;20056;-62
2023/12/24 02:46:56;;;;;;;5.40;3.28;;;;;;;;;;1034014;28;20057;-62
2023/12/24 02:47:27;;;;;;;7.68;3.42;;;;;;;;;;1032501;28;20049;-63
2023/12/24 02:47:57;;;;;;;10.18;3.10;;;;;;;;;;1034340;28;20050;-62
2023/12/24 02:48:28;;;;;;;6.63;2.67;;;;;;;;;;1033428;28;20413;-62
2023/12/24 02:48:58;;;;;;;4.30;2.90;;;;;;;;;;1034077;28;20473;-63
2023/12/24 02:49:29;;;;;;;5.60;2.97;;;;;;;;;;1033371;28;20050;-62
2023/12/24 02:49:59;;;;;;;6.00;2.95;;;;;;;;;;1033465;28;20133;-62
2023/12/24 02:50:30;;;;;;;5.40;2.95;;;;;;;;;;1032590;28;20049;-63
2023/12/24 02:51:00;;;;;;;7.13;2.80;;;;;;;;;;1033581;28;20123;-62
2023/12/24 02:51:31;;;;;;;6.95;2.92;;;;;;;;;;1032715;28;20842;-62
2023/12/24 02:52:01;;;;;;;7.70;3.13;;;;;;;;;;1032003;28;20052;-62
2023/12/24 02:52:32;;;;;;;6.72;3.00;;;;;;;;;;1032458;28;20046;-62
2023/12/24 02:53:02;;;;;;;7.55;2.63;;;;;;;;;;1033093;28;20054;-63
2023/12/24 02:53:33;;;;;;;6.53;2.60;;;;;;;;;;1032375;28;20781;-63
2023/12/24 02:54:03;;;;;;;7.72;2.72;;;;;;;;;;1031910;28;20058;-63
2023/12/24 02:54:34;;;;;;;9.80;2.90;;;;;;;;;;1032808;28;20045;-62
2023/12/24 02:55:04;;;;;;;6.43;3.55;;;;;;;;;;1033928;28;20049;-63
2023/12/24 02:55:35;;;;;;;7.90;3.40;;;;;;;;;;1032416;28;20061;-62
2023/12/24 02:56:06;;;;;;;12.13;2.70;;;;;;;;;;1032290;28;20045;-63
2023/12/24 02:56:36;;;;;;;7.13;3.50;;;;;;;;;;1031957;28;20050;-62
2023/12/24 02:57:07;;;;;;;5.68;2.88;;;;;;;;;;1034156;28;20045;-63
2023/12/24 02:57:37;;;;;;;5.15;2.83;;;;;;;;;;1031511;28;20053;-63
2023/12/24 02:58:08;;;;;;;4.78;2.70;;;;;;;;;;1033615;28;20050;-62
2023/12/24 02:58:38;;;;;;;6.60;3.05;;;;;;;;;;1031611;28;20557;-62
2023/12/24 02:59:09;;;;;;;6.30;2.70;;;;;;;;;;1034380;28;20050;-62
2023/12/24 02:59:39;;;;;;;7.65;3.08;;;;;;;;;;1032606;28;20053;-63
2023/12/24 03:00:11;;;;;;;6.18;2.70;;;;;;;;;;1033055;28;20061;-62
2023/12/24 03:00:41;;;;;;;9.80;3.38;;;;;;;;;;1031057;28;20043;-63
2023/12/24 03:01:12;;;;;;;11.18;3.13;;;;;;;;;;1032892;28;20057;-62
2023/12/24 03:01:42;;;;;;;7.15;2.53;;;;;;;;;;1033438;28;20053;-63
2023/12/24 03:02:13;;;;;;;8.35;2.85;;;;;;;;;;1033770;28;20054;-62
2023/12/24 03:02:44;;;;;;;7.35;2.40;;;;;;;;;;1033663;28;20050;-62
2023/12/24 03:03:15;;;;;;;7.82;2.85;;;;;;;;;;1033279;28;20045;-63
2023/12/24 03:03:45;;;;;;;7.28;2.75;;;;;;;;;;1033635;28;20054;-63
2023/12/24 03:04:16;;;;;;;4.40;2.75;;;;;;;;;;1033679;28;20065;-62
2023/12/24 03:04:46;;;;;;;5.38;2.40;;;;;;;;;;1033820;28;20096;-62
2023/12/24 03:05:17;;;;;;;7.60;2.50;;;;;;;;;;1033826;28;20077;-63
2023/12/24 03:05:47;;;;;;;7.07;3.03;;;;;;;;;;1031865;28;20819;-62
2023/12/24 03:06:18;;;;;;;10.68;2.97;;;;;;;;;;1033736;28;20054;-63
2023/12/24 03:06:48;;;;;;;5.82;2.90;;;;;;;;;;1033050;28;20049;-63